Time;durP1;ratioP1;P1;durP2;ratioP2;P2;SDS_P1;SDS_P2;PMS_P1;PMS_P2;Temp;Humidity;BMP_temperature;BMP_pressure;BME280_temperature;BME280_humidity;BME280_pressure;Samples;Min_cycle;Max_cycle;Signal;HPM_P1;HPM_P2
2021/05/13 00:00:41;;;;;;;0.10;0.10;;;;;;;;;;5124911;28;20209;-67
2021/05/13 00:03:06;;;;;;;0.10;0.10;;;;;;;;;;5126738;27;20379;-66
2021/05/13 00:05:33;;;;;;;0.10;0.10;;;;;;;;;;5125335;28;20273;-67
2021/05/13 00:07:59;;;;;;;0.10;0.10;;;;;;;;;;5128929;27;20214;-66
2021/05/13 00:10:26;;;;;;;0.10;0.10;;;;;;;;;;5133127;27;20228;-66
2021/05/13 00:12:55;;;;;;;0.10;0.10;;;;;;;;;;5120994;28;20229;-66
2021/05/13 00:15:22;;;;;;;1.17;1.17;;;;;;;;;;5124355;28;20239;-67
2021/05/13 00:17:48;;;;;;;0.10;0.10;;;;;;;;;;5124605;28;20491;-66
2021/05/13 00:20:15;;;;;;;0.10;0.10;;;;;;;;;;5124549;28;20204;-66
2021/05/13 00:22:42;;;;;;;0.10;0.10;;;;;;;;;;5124226;28;20201;-66
2021/05/13 00:25:09;;;;;;;0.10;0.10;;;;;;;;;;5124041;28;20212;-65
2021/05/13 00:27:34;;;;;;;0.10;0.10;;;;;;;;;;5124534;28;20351;-66
2021/05/13 00:30:00;;;;;;;0.10;0.10;;;;;;;;;;5124218;28;20208;-67
2021/05/13 00:32:26;;;;;;;0.10;0.10;;;;;;;;;;5124141;28;20489;-68
2021/05/13 00:34:52;;;;;;;0.10;0.10;;;;;;;;;;5112022;28;20403;-67
2021/05/13 00:37:17;;;;;;;0.10;0.10;;;;;;;;;;5123836;28;20507;-66
2021/05/13 00:39:44;;;;;;;0.10;0.10;;;;;;;;;;5124407;28;20206;-66
2021/05/13 00:42:10;;;;;;;0.10;0.10;;;;;;;;;;5123772;28;20217;-66
2021/05/13 00:44:36;;;;;;;0.10;0.10;;;;;;;;;;5123984;28;20450;-66
2021/05/13 00:47:03;;;;;;;0.10;0.10;;;;;;;;;;5116327;28;20201;-66
2021/05/13 00:49:28;;;;;;;0.10;0.10;;;;;;;;;;5124170;28;20205;-66
2021/05/13 00:51:54;;;;;;;0.10;0.10;;;;;;;;;;5124039;28;20395;-66
2021/05/13 00:54:20;;;;;;;0.10;0.10;;;;;;;;;;5127864;28;20257;-66
2021/05/13 00:56:47;;;;;;;0.10;0.10;;;;;;;;;;5113868;28;20212;-66
2021/05/13 00:59:14;;;;;;;0.10;0.10;;;;;;;;;;5124050;28;20213;-66
2021/05/13 01:01:49;;;;;;;0.10;0.10;;;;;;;;;;5123951;28;20207;-65
2021/05/13 01:04:15;;;;;;;0.10;0.10;;;;;;;;;;5123813;28;20266;-66
2021/05/13 01:06:40;;;;;;;0.10;0.10;;;;;;;;;;5124001;28;20207;-67
2021/05/13 01:09:08;;;;;;;0.10;0.10;;;;;;;;;;5112878;28;20467;-68
2021/05/13 01:11:35;;;;;;;0.10;0.10;;;;;;;;;;5136891;28;20243;-66
2021/05/13 01:14:10;;;;;;;0.10;0.10;;;;;;;;;;5113837;28;20216;-66
2021/05/13 01:16:46;;;;;;;0.10;0.10;;;;;;;;;;5121391;28;20202;-69
2021/05/13 01:19:12;;;;;;;0.10;0.10;;;;;;;;;;5123966;28;20200;-67
2021/05/13 01:21:38;;;;;;;0.10;0.10;;;;;;;;;;5123511;28;20235;-66
2021/05/13 01:24:05;;;;;;;0.10;0.10;;;;;;;;;;5127451;28;20299;-66
2021/05/13 01:26:31;;;;;;;0.10;0.10;;;;;;;;;;5127746;28;20214;-66
2021/05/13 01:28:58;;;;;;;0.10;0.10;;;;;;;;;;5127693;28;20495;-66
2021/05/13 01:31:24;;;;;;;0.10;0.10;;;;;;;;;;5127398;28;20222;-65
2021/05/13 01:33:49;;;;;;;0.10;0.10;;;;;;;;;;5127447;28;20211;-66
2021/05/13 01:36:15;;;;;;;0.10;0.10;;;;;;;;;;5127516;28;20215;-67
2021/05/13 01:38:42;;;;;;;0.10;0.10;;;;;;;;;;5127497;28;20201;-67
2021/05/13 01:41:07;;;;;;;0.10;0.10;;;;;;;;;;5127477;28;20276;-68
2021/05/13 01:43:33;;;;;;;0.10;0.10;;;;;;;;;;5127618;28;20199;-67
2021/05/13 01:46:00;;;;;;;0.10;0.10;;;;;;;;;;5127335;28;20210;-67
2021/05/13 01:48:26;;;;;;;0.10;0.10;;;;;;;;;;5117487;28;20512;-68
2021/05/13 01:50:52;;;;;;;0.20;0.20;;;;;;;;;;5127235;28;20222;-65
2021/05/13 01:53:18;;;;;;;0.10;0.10;;;;;;;;;;5127023;28;20237;-65
2021/05/13 01:55:44;;;;;;;0.10;0.10;;;;;;;;;;5126995;28;20244;-65
2021/05/13 01:58:10;;;;;;;0.10;0.10;;;;;;;;;;5127253;28;20209;-66
2021/05/13 02:00:36;;;;;;;0.10;0.10;;;;;;;;;;5126823;28;20374;-68
2021/05/13 02:03:02;;;;;;;0.10;0.10;;;;;;;;;;5127276;28;20202;-66
2021/05/13 02:05:28;;;;;;;0.10;0.10;;;;;;;;;;5127046;27;20209;-65
2021/05/13 02:07:54;;;;;;;0.10;0.10;;;;;;;;;;5130716;27;20200;-64
2021/05/13 02:10:20;;;;;;;0.10;0.10;;;;;;;;;;5133957;27;20216;-68
2021/05/13 02:12:48;;;;;;;0.10;0.10;;;;;;;;;;5126910;28;20256;-67
2021/05/13 02:15:14;;;;;;;0.10;0.10;;;;;;;;;;5126416;28;20202;-66
2021/05/13 02:17:40;;;;;;;0.10;0.10;;;;;;;;;;5121576;28;20212;-67
2021/05/13 02:20:07;;;;;;;0.10;0.10;;;;;;;;;;5126508;28;20403;-69
2021/05/13 02:22:33;;;;;;;0.10;0.10;;;;;;;;;;5126786;28;20384;-67
2021/05/13 02:24:59;;;;;;;0.10;0.10;;;;;;;;;;5126530;28;20205;-68
2021/05/13 02:27:24;;;;;;;0.10;0.10;;;;;;;;;;5126314;28;20202;-67
2021/05/13 02:29:51;;;;;;;0.10;0.10;;;;;;;;;;5126624;28;20204;-66
2021/05/13 02:32:17;;;;;;;0.10;0.10;;;;;;;;;;5118668;28;20230;-66
2021/05/13 02:34:42;;;;;;;0.10;0.10;;;;;;;;;;5125649;28;20198;-66
2021/05/13 02:37:08;;;;;;;0.10;0.10;;;;;;;;;;5116232;28;20432;-65
2021/05/13 02:39:34;;;;;;;0.10;0.10;;;;;;;;;;5126400;28;20505;-68
2021/05/13 02:42:00;;;;;;;0.10;0.10;;;;;;;;;;5126206;28;20279;-66
2021/05/13 02:44:25;;;;;;;0.43;0.43;;;;;;;;;;5125965;28;20398;-66
2021/05/13 02:46:52;;;;;;;0.10;0.10;;;;;;;;;;5126330;28;20283;-65
2021/05/13 02:49:18;;;;;;;0.10;0.10;;;;;;;;;;5125113;28;20210;-65
2021/05/13 02:51:43;;;;;;;0.10;0.10;;;;;;;;;;5126150;28;20226;-66
2021/05/13 02:54:09;;;;;;;0.10;0.10;;;;;;;;;;5125870;28;20202;-66
2021/05/13 02:56:35;;;;;;;0.10;0.10;;;;;;;;;;5125705;28;20249;-65
2021/05/13 02:59:01;;;;;;;0.10;0.10;;;;;;;;;;5126072;28;20248;-66
2021/05/13 03:01:29;;;;;;;0.10;0.10;;;;;;;;;;5126218;28;20214;-65
2021/05/13 03:03:56;;;;;;;0.10;0.10;;;;;;;;;;5118970;28;20204;-67
2021/05/13 03:06:22;;;;;;;0.10;0.10;;;;;;;;;;5132085;27;20218;-67
2021/05/13 03:08:52;;;;;;;0.10;0.10;;;;;;;;;;5131279;27;20209;-67
2021/05/13 03:11:17;;;;;;;0.10;0.10;;;;;;;;;;5116460;28;20243;-67
2021/05/13 03:13:44;;;;;;;0.10;0.10;;;;;;;;;;5125276;28;20543;-67
2021/05/13 03:16:10;;;;;;;0.10;0.10;;;;;;;;;;5125771;28;20256;-67
2021/05/13 03:18:36;;;;;;;0.10;0.10;;;;;;;;;;5125559;28;20202;-67
2021/05/13 03:21:06;;;;;;;0.10;0.10;;;;;;;;;;5125712;28;20516;-67
2021/05/13 03:23:40;;;;;;;0.10;0.10;;;;;;;;;;5125736;28;20262;-67
2021/05/13 03:26:06;;;;;;;0.10;0.10;;;;;;;;;;5125370;27;20207;-67
2021/05/13 03:28:32;;;;;;;0.10;0.10;;;;;;;;;;5125549;28;20202;-67
2021/05/13 03:30:58;;;;;;;0.10;0.10;;;;;;;;;;5124942;28;20545;-67
2021/05/13 03:33:23;;;;;;;0.10;0.10;;;;;;;;;;5125237;28;20248;-67
2021/05/13 03:35:49;;;;;;;0.10;0.10;;;;;;;;;;5125063;28;20500;-67
2021/05/13 03:38:16;;;;;;;0.10;0.10;;;;;;;;;;5125164;28;20554;-66
2021/05/13 03:40:42;;;;;;;0.10;0.10;;;;;;;;;;5125187;28;20207;-67
2021/05/13 03:43:08;;;;;;;0.10;0.10;;;;;;;;;;5125391;28;20202;-66
2021/05/13 03:45:34;;;;;;;0.10;0.10;;;;;;;;;;5124355;28;20205;-66
2021/05/13 03:48:02;;;;;;;0.10;0.10;;;;;;;;;;5125267;28;20197;-66
2021/05/13 03:50:28;;;;;;;0.10;0.10;;;;;;;;;;5125856;27;20202;-67
2021/05/13 03:52:54;;;;;;;0.10;0.10;;;;;;;;;;5125073;28;20587;-66
2021/05/13 03:55:20;;;;;;;0.10;0.10;;;;;;;;;;5124139;28;20210;-66
2021/05/13 03:57:46;;;;;;;1.60;1.60;;;;;;;;;;5125322;27;20430;-67
2021/05/13 04:00:14;;;;;;;0.10;0.10;;;;;;;;;;5136198;27;20242;-67
2021/05/13 04:02:40;;;;;;;0.10;0.10;;;;;;;;;;5124811;28;20207;-66
2021/05/13 04:05:06;;;;;;;0.10;0.10;;;;;;;;;;5134535;27;20203;-69
2021/05/13 04:07:32;;;;;;;0.10;0.10;;;;;;;;;;5116101;28;20248;-66
2021/05/13 04:09:58;;;;;;;0.10;0.10;;;;;;;;;;5124490;28;20281;-67
2021/05/13 04:12:25;;;;;;;0.10;0.10;;;;;;;;;;5124715;28;20217;-66
2021/05/13 04:14:51;;;;;;;0.10;0.10;;;;;;;;;;5131226;27;20206;-66
2021/05/13 04:17:17;;;;;;;0.10;0.10;;;;;;;;;;5124519;28;20270;-67
2021/05/13 04:19:43;;;;;;;0.10;0.10;;;;;;;;;;5124664;28;20205;-67
2021/05/13 04:22:08;;;;;;;0.10;0.10;;;;;;;;;;5124021;28;20358;-67
2021/05/13 04:24:34;;;;;;;0.10;0.10;;;;;;;;;;5124424;28;20208;-66
2021/05/13 04:27:00;;;;;;;0.10;0.10;;;;;;;;;;5124300;28;20204;-65
2021/05/13 04:29:26;;;;;;;0.10;0.10;;;;;;;;;;5119410;28;20198;-65
2021/05/13 04:31:52;;;;;;;0.10;0.10;;;;;;;;;;5119631;28;20232;-65
2021/05/13 04:34:18;;;;;;;0.10;0.10;;;;;;;;;;5116750;28;20206;-66
2021/05/13 04:36:44;;;;;;;0.10;0.10;;;;;;;;;;5117303;28;20298;-66
2021/05/13 04:39:09;;;;;;;0.10;0.10;;;;;;;;;;5124268;28;20210;-66
2021/05/13 04:41:35;;;;;;;0.10;0.10;;;;;;;;;;5124148;28;20226;-65
2021/05/13 04:44:01;;;;;;;0.10;0.10;;;;;;;;;;5119730;28;20233;-65
2021/05/13 04:46:30;;;;;;;0.10;0.10;;;;;;;;;;5124167;28;20387;-65
2021/05/13 04:49:14;;;;;;;0.10;0.10;;;;;;;;;;5124167;28;20241;-67
2021/05/13 04:51:39;;;;;;;0.10;0.10;;;;;;;;;;5121081;28;20442;-65
2021/05/13 04:54:05;;;;;;;0.10;0.10;;;;;;;;;;5124164;28;20311;-66
2021/05/13 04:56:31;;;;;;;0.10;0.10;;;;;;;;;;5123667;28;20201;-66
2021/05/13 04:58:58;;;;;;;0.10;0.10;;;;;;;;;;5124076;28;20518;-66
2021/05/13 05:01:24;;;;;;;0.10;0.10;;;;;;;;;;5124010;28;20213;-67
2021/05/13 05:03:50;;;;;;;0.10;0.10;;;;;;;;;;5124100;28;20203;-66
2021/05/13 05:06:16;;;;;;;0.10;0.10;;;;;;;;;;5123770;28;20216;-67
2021/05/13 05:08:42;;;;;;;0.10;0.10;;;;;;;;;;5124099;28;20388;-66
2021/05/13 05:11:08;;;;;;;0.10;0.10;;;;;;;;;;5123686;28;20268;-66
2021/05/13 05:13:34;;;;;;;0.10;0.10;;;;;;;;;;5123877;28;20532;-65
2021/05/13 05:16:00;;;;;;;0.10;0.10;;;;;;;;;;5129034;28;20242;-69
2021/05/13 05:18:26;;;;;;;0.10;0.10;;;;;;;;;;5130822;28;20206;-69
2021/05/13 05:20:53;;;;;;;0.10;0.10;;;;;;;;;;5136327;28;20450;-70
2021/05/13 05:23:19;;;;;;;0.10;0.10;;;;;;;;;;5125423;28;20198;-67
2021/05/13 05:25:45;;;;;;;0.10;0.10;;;;;;;;;;5135084;28;20455;-67
2021/05/13 05:28:11;;;;;;;0.10;0.10;;;;;;;;;;5130151;28;20205;-66
2021/05/13 05:30:37;;;;;;;0.10;0.10;;;;;;;;;;5132055;28;20496;-67
2021/05/13 05:33:03;;;;;;;0.10;0.10;;;;;;;;;;5128240;28;20229;-66
2021/05/13 05:35:29;;;;;;;0.10;0.10;;;;;;;;;;5130714;28;20215;-66
2021/05/13 05:37:56;;;;;;;0.10;0.10;;;;;;;;;;5129404;28;20202;-66
2021/05/13 05:40:22;;;;;;;0.10;0.10;;;;;;;;;;5130873;28;20495;-66
2021/05/13 05:42:47;;;;;;;0.10;0.10;;;;;;;;;;5125009;28;20493;-65
2021/05/13 05:45:14;;;;;;;0.10;0.10;;;;;;;;;;5123127;28;20268;-66
2021/05/13 05:47:40;;;;;;;0.10;0.10;;;;;;;;;;5129757;28;20276;-66
2021/05/13 05:50:06;;;;;;;0.10;0.10;;;;;;;;;;5138627;28;20423;-66
2021/05/13 05:52:32;;;;;;;0.10;0.10;;;;;;;;;;5127093;28;20221;-66
2021/05/13 05:54:58;;;;;;;0.10;0.10;;;;;;;;;;5125852;28;20453;-66
2021/05/13 05:57:24;;;;;;;0.10;0.10;;;;;;;;;;5131204;28;20209;-67
2021/05/13 05:59:50;;;;;;;0.10;0.10;;;;;;;;;;5128789;28;20207;-67
2021/05/13 06:02:15;;;;;;;0.10;0.10;;;;;;;;;;5130969;28;20209;-66
2021/05/13 06:04:41;;;;;;;0.10;0.10;;;;;;;;;;5130409;28;20225;-66
2021/05/13 06:07:07;;;;;;;0.10;0.10;;;;;;;;;;5120428;28;20203;-66
2021/05/13 06:09:33;;;;;;;0.10;0.10;;;;;;;;;;5128468;27;20217;-66
2021/05/13 06:11:59;;;;;;;0.10;0.10;;;;;;;;;;5123349;27;20230;-66
2021/05/13 06:14:25;;;;;;;0.10;0.10;;;;;;;;;;5134794;27;20203;-67
2021/05/13 06:16:51;;;;;;;0.10;0.10;;;;;;;;;;5134552;27;20362;-67
2021/05/13 06:19:18;;;;;;;0.10;0.10;;;;;;;;;;5135798;27;20489;-66
2021/05/13 06:21:43;;;;;;;0.10;0.10;;;;;;;;;;5127512;27;20261;-66
2021/05/13 06:24:11;;;;;;;0.57;0.57;;;;;;;;;;5137165;27;20207;-67
2021/05/13 06:26:37;;;;;;;0.10;0.10;;;;;;;;;;5138446;27;20513;-66
2021/05/13 06:29:04;;;;;;;0.10;0.10;;;;;;;;;;5134188;27;20199;-66
2021/05/13 06:31:30;;;;;;;0.10;0.10;;;;;;;;;;5132900;27;20229;-66
2021/05/13 06:33:56;;;;;;;0.10;0.10;;;;;;;;;;5137328;27;20239;-68
2021/05/13 06:36:22;;;;;;;0.10;0.10;;;;;;;;;;5132548;27;20280;-68
2021/05/13 06:38:47;;;;;;;0.10;0.10;;;;;;;;;;5135152;27;20535;-66
2021/05/13 06:41:13;;;;;;;0.10;0.10;;;;;;;;;;5121625;28;20438;-66
2021/05/13 06:43:39;;;;;;;0.10;0.10;;;;;;;;;;5133114;27;20202;-67
2021/05/13 06:46:06;;;;;;;0.20;0.20;;;;;;;;;;5126185;28;20536;-64
2021/05/13 06:48:31;;;;;;;0.10;0.10;;;;;;;;;;5126465;27;20213;-66
2021/05/13 06:50:57;;;;;;;0.10;0.10;;;;;;;;;;5132303;27;20204;-65
2021/05/13 06:53:23;;;;;;;0.10;0.10;;;;;;;;;;5137101;27;20230;-66
2021/05/13 06:55:52;;;;;;;0.10;0.10;;;;;;;;;;5139226;27;20209;-66
2021/05/13 06:58:18;;;;;;;0.10;0.10;;;;;;;;;;5129031;27;20206;-66
2021/05/13 07:00:44;;;;;;;0.10;0.10;;;;;;;;;;5126897;27;20233;-66
2021/05/13 07:03:11;;;;;;;0.10;0.10;;;;;;;;;;5128346;27;20274;-66
2021/05/13 07:05:36;;;;;;;0.10;0.10;;;;;;;;;;5133510;27;20469;-66
2021/05/13 07:08:04;;;;;;;0.10;0.10;;;;;;;;;;5125828;28;20202;-65
2021/05/13 07:10:30;;;;;;;0.10;0.10;;;;;;;;;;5126675;28;20378;-67
2021/05/13 07:12:56;;;;;;;0.10;0.10;;;;;;;;;;5125562;28;20503;-65
2021/05/13 07:15:22;;;;;;;0.10;0.10;;;;;;;;;;5126096;27;20485;-66
2021/05/13 07:17:48;;;;;;;0.10;0.10;;;;;;;;;;5133626;27;20203;-65
2021/05/13 07:20:15;;;;;;;0.10;0.10;;;;;;;;;;5128092;27;20501;-65
2021/05/13 07:22:40;;;;;;;0.10;0.10;;;;;;;;;;5132095;27;20264;-66
2021/05/13 07:25:07;;;;;;;0.10;0.10;;;;;;;;;;5134337;27;20215;-67
2021/05/13 07:27:33;;;;;;;0.10;0.10;;;;;;;;;;5125768;28;20378;-65
2021/05/13 07:29:59;;;;;;;0.10;0.10;;;;;;;;;;5128893;27;20225;-66
2021/05/13 07:32:25;;;;;;;0.10;0.10;;;;;;;;;;5132971;27;20288;-66
2021/05/13 07:34:50;;;;;;;0.10;0.10;;;;;;;;;;5130604;27;20212;-67
2021/05/13 07:37:17;;;;;;;0.10;0.10;;;;;;;;;;5124588;28;20560;-67
2021/05/13 07:39:43;;;;;;;0.10;0.10;;;;;;;;;;5124835;28;20209;-66
2021/05/13 07:42:09;;;;;;;0.10;0.10;;;;;;;;;;5124934;28;20238;-66
2021/05/13 07:44:34;;;;;;;0.10;0.10;;;;;;;;;;5124891;28;20205;-66
2021/05/13 07:47:00;;;;;;;0.10;0.10;;;;;;;;;;5125144;28;20201;-66
2021/05/13 07:49:26;;;;;;;0.20;0.20;;;;;;;;;;5125286;27;20504;-66
2021/05/13 07:51:52;;;;;;;0.10;0.10;;;;;;;;;;5137734;27;20202;-65
2021/05/13 07:54:19;;;;;;;0.10;0.10;;;;;;;;;;5123303;28;20203;-64
2021/05/13 07:56:46;;;;;;;0.13;0.13;;;;;;;;;;5134558;27;20198;-65
2021/05/13 07:59:12;;;;;;;0.10;0.10;;;;;;;;;;5124703;28;20228;-66
2021/05/13 08:01:38;;;;;;;0.10;0.10;;;;;;;;;;5127035;27;20419;-65
2021/05/13 08:04:04;;;;;;;0.10;0.10;;;;;;;;;;5125694;27;20391;-66
2021/05/13 08:06:30;;;;;;;0.10;0.10;;;;;;;;;;5128635;27;20202;-65
2021/05/13 08:08:56;;;;;;;0.10;0.10;;;;;;;;;;5124065;28;20524;-65
2021/05/13 08:11:22;;;;;;;0.10;0.10;;;;;;;;;;5123360;28;20274;-66
2021/05/13 08:13:48;;;;;;;0.10;0.10;;;;;;;;;;5124245;28;20225;-65
2021/05/13 08:16:14;;;;;;;0.10;0.10;;;;;;;;;;5122672;28;20363;-65
2021/05/13 08:18:39;;;;;;;0.63;0.63;;;;;;;;;;5123616;28;20205;-64
2021/05/13 08:21:05;;;;;;;0.10;0.10;;;;;;;;;;5123627;28;20304;-64
2021/05/13 08:23:31;;;;;;;0.10;0.10;;;;;;;;;;5123923;28;20215;-64
2021/05/13 08:25:57;;;;;;;0.10;0.10;;;;;;;;;;5123815;28;20301;-63
2021/05/13 08:28:23;;;;;;;0.10;0.10;;;;;;;;;;5120633;28;20202;-66
2021/05/13 08:30:49;;;;;;;0.33;0.33;;;;;;;;;;5123830;28;20497;-64
2021/05/13 08:33:15;;;;;;;0.10;0.10;;;;;;;;;;5123467;28;20227;-64
2021/05/13 08:35:41;;;;;;;0.10;0.10;;;;;;;;;;5123737;28;20372;-65
2021/05/13 08:38:07;;;;;;;0.47;0.47;;;;;;;;;;5124049;28;20264;-64
2021/05/13 08:40:32;;;;;;;0.10;0.10;;;;;;;;;;5124057;28;20206;-65
2021/05/13 08:42:59;;;;;;;0.10;0.10;;;;;;;;;;5123540;28;20269;-73
2021/05/13 08:45:26;;;;;;;0.10;0.10;;;;;;;;;;5124246;28;20205;-73
2021/05/13 08:47:52;;;;;;;0.20;0.20;;;;;;;;;;5125938;28;20226;-73
2021/05/13 08:50:19;;;;;;;0.10;0.10;;;;;;;;;;5119220;28;20234;-74
2021/05/13 08:52:45;;;;;;;0.10;0.10;;;;;;;;;;5123072;28;20527;-74
2021/05/13 08:55:11;;;;;;;0.10;0.10;;;;;;;;;;5123877;28;20210;-73
2021/05/13 08:57:37;;;;;;;0.10;0.10;;;;;;;;;;5124722;28;20246;-73
2021/05/13 09:00:05;;;;;;;0.10;0.10;;;;;;;;;;5124781;28;20209;-74
2021/05/13 09:02:31;;;;;;;0.10;0.10;;;;;;;;;;5123702;28;20197;-74
2021/05/13 09:04:58;;;;;;;0.33;0.33;;;;;;;;;;5134569;28;20208;-73
2021/05/13 09:07:26;;;;;;;0.10;0.10;;;;;;;;;;5133257;28;20366;-73
2021/05/13 09:09:55;;;;;;;0.20;0.20;;;;;;;;;;5127640;28;20224;-75
2021/05/13 09:12:21;;;;;;;0.10;0.10;;;;;;;;;;5136965;27;20252;-74
2021/05/13 09:14:55;;;;;;;0.10;0.10;;;;;;;;;;5123534;28;20271;-73
2021/05/13 09:17:23;;;;;;;0.10;0.10;;;;;;;;;;5126758;28;20495;-72
2021/05/13 09:19:50;;;;;;;0.10;0.10;;;;;;;;;;5115028;28;20382;-74
2021/05/13 09:22:20;;;;;;;0.10;0.10;;;;;;;;;;5124336;28;20208;-75
2021/05/13 09:24:47;;;;;;;0.57;0.57;;;;;;;;;;5123865;28;20194;-67
2021/05/13 09:27:14;;;;;;;0.10;0.10;;;;;;;;;;5118358;28;20212;-68
2021/05/13 09:29:40;;;;;;;0.10;0.10;;;;;;;;;;5121270;28;20274;-68
2021/05/13 09:32:13;;;;;;;0.10;0.10;;;;;;;;;;5116854;28;20464;-67
2021/05/13 09:34:39;;;;;;;0.37;0.37;;;;;;;;;;5123290;28;20202;-67
2021/05/13 09:37:06;;;;;;;0.10;0.10;;;;;;;;;;5120212;28;20228;-67
2021/05/13 09:39:32;;;;;;;0.10;0.10;;;;;;;;;;5116569;28;20366;-67
2021/05/13 09:41:58;;;;;;;0.10;0.10;;;;;;;;;;5122975;28;20267;-67
2021/05/13 09:44:31;;;;;;;0.10;0.10;;;;;;;;;;5119109;27;20272;-67
2021/05/13 09:46:57;;;;;;;0.10;0.10;;;;;;;;;;5120545;28;20209;-68
2021/05/13 09:49:23;;;;;;;0.10;0.10;;;;;;;;;;5122016;28;20224;-67
2021/05/13 09:51:49;;;;;;;0.10;0.10;;;;;;;;;;5125034;27;20228;-68
2021/05/13 09:54:16;;;;;;;0.10;0.10;;;;;;;;;;5128015;27;20242;-67
2021/05/13 09:56:42;;;;;;;0.10;0.10;;;;;;;;;;5130919;27;20205;-69
2021/05/13 09:59:24;;;;;;;0.10;0.10;;;;;;;;;;5127428;27;20215;-69
2021/05/13 10:01:50;;;;;;;0.10;0.10;;;;;;;;;;5132487;27;20259;-67
2021/05/13 10:04:17;;;;;;;0.10;0.10;;;;;;;;;;5126337;28;20202;-69
2021/05/13 10:06:43;;;;;;;0.40;0.40;;;;;;;;;;5134200;27;20287;-66
2021/05/13 10:09:09;;;;;;;0.10;0.10;;;;;;;;;;5133057;27;20242;-65
2021/05/13 10:11:35;;;;;;;0.10;0.10;;;;;;;;;;5126761;28;20202;-65
2021/05/13 10:14:01;;;;;;;0.10;0.10;;;;;;;;;;5120907;28;20222;-64
2021/05/13 10:16:28;;;;;;;0.10;0.10;;;;;;;;;;5129684;27;20304;-68
2021/05/13 10:18:55;;;;;;;0.10;0.10;;;;;;;;;;5125935;28;20292;-64
2021/05/13 10:21:22;;;;;;;0.10;0.10;;;;;;;;;;5126694;28;20203;-66
2021/05/13 10:23:49;;;;;;;0.10;0.10;;;;;;;;;;5123821;28;20204;-64
2021/05/13 10:26:20;;;;;;;0.10;0.10;;;;;;;;;;5126825;28;20202;-66
2021/05/13 10:28:47;;;;;;;0.10;0.10;;;;;;;;;;5124430;28;20202;-64
2021/05/13 10:31:13;;;;;;;0.10;0.10;;;;;;;;;;5126576;28;20202;-63
2021/05/13 10:33:43;;;;;;;0.10;0.10;;;;;;;;;;5119474;28;20424;-66
2021/05/13 10:36:09;;;;;;;0.10;0.10;;;;;;;;;;5126046;28;20214;-65
2021/05/13 10:38:45;;;;;;;0.10;0.10;;;;;;;;;;5134165;27;20197;-64
2021/05/13 10:41:29;;;;;;;0.10;0.10;;;;;;;;;;5122567;28;20222;-65
2021/05/13 10:43:56;;;;;;;0.10;0.10;;;;;;;;;;5115174;28;20198;-64
2021/05/13 10:46:26;;;;;;;0.10;0.10;;;;;;;;;;5126123;28;20209;-65
2021/05/13 10:48:51;;;;;;;0.10;0.10;;;;;;;;;;5129052;27;20393;-67
2021/05/13 10:51:24;;;;;;;0.10;0.10;;;;;;;;;;5123403;27;20198;-66
2021/05/13 10:53:50;;;;;;;0.10;0.10;;;;;;;;;;5123782;27;20519;-68
2021/05/13 10:56:22;;;;;;;0.10;0.10;;;;;;;;;;5126049;27;20221;-67
2021/05/13 10:59:07;;;;;;;0.10;0.10;;;;;;;;;;5130848;27;20468;-67
2021/05/13 11:01:35;;;;;;;0.10;0.10;;;;;;;;;;5108634;27;20547;-67
2021/05/13 11:04:16;;;;;;;0.10;0.10;;;;;;;;;;5124750;28;20218;-66
2021/05/13 11:06:45;;;;;;;0.10;0.10;;;;;;;;;;5123069;28;20198;-66
2021/05/13 11:09:10;;;;;;;0.10;0.10;;;;;;;;;;5122226;28;20226;-67
2021/05/13 11:11:51;;;;;;;0.10;0.10;;;;;;;;;;5127333;27;20497;-68
2021/05/13 11:14:20;;;;;;;0.10;0.10;;;;;;;;;;5119419;28;20229;-66
2021/05/13 11:16:55;;;;;;;0.10;0.10;;;;;;;;;;5131948;27;20267;-68
2021/05/13 11:19:22;;;;;;;0.10;0.10;;;;;;;;;;5117565;28;20216;-69
2021/05/13 11:22:01;;;;;;;0.10;0.10;;;;;;;;;;5123238;27;20254;-66
2021/05/13 11:24:31;;;;;;;0.10;0.10;;;;;;;;;;5127272;27;20202;-67
2021/05/13 11:26:57;;;;;;;0.10;0.10;;;;;;;;;;5123292;27;20211;-67
2021/05/13 11:29:22;;;;;;;0.10;0.10;;;;;;;;;;5126052;27;20207;-65
2021/05/13 11:31:50;;;;;;;0.10;0.10;;;;;;;;;;5124635;28;20233;-65
2021/05/13 11:34:16;;;;;;;0.10;0.10;;;;;;;;;;5127901;27;20233;-65
2021/05/13 11:36:44;;;;;;;0.10;0.10;;;;;;;;;;5128778;27;20282;-65
2021/05/13 11:39:12;;;;;;;0.10;0.10;;;;;;;;;;5130349;27;20230;-64
2021/05/13 11:41:38;;;;;;;0.20;0.20;;;;;;;;;;5124504;28;20268;-64
2021/05/13 11:44:04;;;;;;;0.00;0.00;;;;;;;;;;5124818;28;20205;-66
2021/05/13 11:46:31;;;;;;;1.53;1.50;;;;;;;;;;5124341;28;20494;-66
2021/05/13 11:48:58;;;;;;;6.70;1.97;;;;;;;;;;5124774;28;20330;-66
2021/05/13 11:51:24;;;;;;;0.10;0.10;;;;;;;;;;5132088;27;20375;-65
2021/05/13 11:53:52;;;;;;;0.10;0.10;;;;;;;;;;5127772;27;20218;-65
2021/05/13 11:56:18;;;;;;;0.20;0.20;;;;;;;;;;5129824;27;20208;-64
2021/05/13 11:58:45;;;;;;;0.10;0.10;;;;;;;;;;5128168;27;20206;-65
2021/05/13 12:01:18;;;;;;;0.10;0.10;;;;;;;;;;5127739;27;20504;-65
2021/05/13 12:03:44;;;;;;;0.10;0.10;;;;;;;;;;5124656;28;20191;-67
2021/05/13 12:06:11;;;;;;;0.10;0.10;;;;;;;;;;5130849;27;20451;-65
2021/05/13 12:08:38;;;;;;;0.10;0.10;;;;;;;;;;5130015;27;20364;-64
2021/05/13 12:11:16;;;;;;;0.10;0.10;;;;;;;;;;5125793;27;20486;-64
2021/05/13 12:13:42;;;;;;;0.10;0.10;;;;;;;;;;5123941;28;20210;-64
2021/05/13 12:16:08;;;;;;;0.10;0.10;;;;;;;;;;5120922;28;20317;-64
2021/05/13 12:18:33;;;;;;;0.10;0.10;;;;;;;;;;5121251;27;20272;-65
2021/05/13 12:21:01;;;;;;;0.10;0.10;;;;;;;;;;5122809;27;20202;-65
2021/05/13 12:23:28;;;;;;;0.10;0.10;;;;;;;;;;5122524;27;20198;-64
2021/05/13 12:25:54;;;;;;;0.10;0.10;;;;;;;;;;5127331;27;20213;-64
2021/05/13 12:28:20;;;;;;;0.10;0.10;;;;;;;;;;5129034;27;20387;-65
2021/05/13 12:30:50;;;;;;;0.10;0.10;;;;;;;;;;5123290;28;20210;-63
2021/05/13 12:33:22;;;;;;;0.10;0.10;;;;;;;;;;5125422;27;20226;-63
2021/05/13 12:35:48;;;;;;;0.23;0.20;;;;;;;;;;5127261;27;20208;-63
2021/05/13 12:38:15;;;;;;;0.10;0.10;;;;;;;;;;5126478;27;20196;-65
2021/05/13 12:40:42;;;;;;;0.10;0.10;;;;;;;;;;5121126;28;20538;-64
2021/05/13 12:43:09;;;;;;;0.10;0.10;;;;;;;;;;5123878;28;20204;-63
2021/05/13 12:45:41;;;;;;;0.10;0.10;;;;;;;;;;5129597;27;20197;-64
2021/05/13 12:48:07;;;;;;;0.10;0.10;;;;;;;;;;5125179;27;20206;-62
2021/05/13 12:50:33;;;;;;;0.10;0.10;;;;;;;;;;5132598;27;20204;-63
2021/05/13 12:53:09;;;;;;;0.10;0.10;;;;;;;;;;5126625;27;20218;-62
2021/05/13 12:55:36;;;;;;;0.10;0.10;;;;;;;;;;5114244;28;20502;-65
2021/05/13 12:58:08;;;;;;;0.10;0.10;;;;;;;;;;5120678;28;20210;-63
2021/05/13 13:00:34;;;;;;;0.10;0.10;;;;;;;;;;5126028;28;20196;-63
2021/05/13 13:03:03;;;;;;;0.10;0.10;;;;;;;;;;5138237;28;20551;-64
2021/05/13 13:05:28;;;;;;;0.10;0.10;;;;;;;;;;5126000;28;20265;-64
2021/05/13 13:07:55;;;;;;;0.10;0.10;;;;;;;;;;5120838;28;20208;-63
2021/05/13 13:10:26;;;;;;;0.30;0.30;;;;;;;;;;5124008;28;20204;-64
2021/05/13 13:13:06;;;;;;;0.10;0.10;;;;;;;;;;5130942;28;20232;-65
2021/05/13 13:15:33;;;;;;;0.10;0.10;;;;;;;;;;5117300;28;20514;-66
2021/05/13 13:18:03;;;;;;;0.10;0.10;;;;;;;;;;5124573;28;20268;-64
2021/05/13 13:20:29;;;;;;;0.10;0.10;;;;;;;;;;5124622;28;20205;-65
2021/05/13 13:22:55;;;;;;;0.10;0.10;;;;;;;;;;5120339;27;20221;-63
2021/05/13 13:25:21;;;;;;;0.10;0.10;;;;;;;;;;5138609;27;20247;-68
2021/05/13 13:27:46;;;;;;;0.10;0.10;;;;;;;;;;5129760;27;20233;-65
2021/05/13 13:30:14;;;;;;;0.13;0.13;;;;;;;;;;5127972;27;20204;-65
2021/05/13 13:32:41;;;;;;;0.10;0.10;;;;;;;;;;5127387;28;20237;-63
2021/05/13 13:35:10;;;;;;;0.10;0.10;;;;;;;;;;5127677;28;20206;-65
2021/05/13 13:37:36;;;;;;;0.10;0.10;;;;;;;;;;5133238;27;20209;-63
2021/05/13 13:40:02;;;;;;;0.10;0.10;;;;;;;;;;5127994;27;20273;-66
2021/05/13 13:42:29;;;;;;;0.10;0.10;;;;;;;;;;5129745;27;20200;-65
2021/05/13 13:44:55;;;;;;;0.10;0.10;;;;;;;;;;5128158;27;20235;-67
2021/05/13 13:47:21;;;;;;;0.10;0.10;;;;;;;;;;5128216;27;20204;-65
2021/05/13 13:49:47;;;;;;;0.20;0.20;;;;;;;;;;5127452;27;20209;-64
2021/05/13 13:52:13;;;;;;;0.10;0.10;;;;;;;;;;5130021;27;20233;-64
2021/05/13 13:54:39;;;;;;;0.10;0.10;;;;;;;;;;5127183;27;20271;-63
2021/05/13 13:57:05;;;;;;;0.10;0.10;;;;;;;;;;5127515;27;20202;-64
2021/05/13 13:59:31;;;;;;;0.10;0.10;;;;;;;;;;5127396;28;20212;-65
2021/05/13 14:01:56;;;;;;;0.50;0.50;;;;;;;;;;5126813;28;20462;-65
2021/05/13 14:04:23;;;;;;;0.10;0.10;;;;;;;;;;5126725;28;20206;-65
2021/05/13 14:06:49;;;;;;;0.10;0.10;;;;;;;;;;5126789;27;20206;-65
2021/05/13 14:09:16;;;;;;;0.10;0.10;;;;;;;;;;5127044;28;20530;-65
2021/05/13 14:11:42;;;;;;;0.10;0.10;;;;;;;;;;5127585;28;20256;-64
2021/05/13 14:14:08;;;;;;;0.10;0.10;;;;;;;;;;5127063;28;20529;-64
2021/05/13 14:16:34;;;;;;;0.20;0.20;;;;;;;;;;5127255;28;20198;-64
2021/05/13 14:18:59;;;;;;;0.10;0.10;;;;;;;;;;5126976;28;20205;-66
2021/05/13 14:21:26;;;;;;;0.10;0.10;;;;;;;;;;5133421;27;20223;-64
2021/05/13 14:23:52;;;;;;;0.10;0.10;;;;;;;;;;5123816;28;20202;-64
2021/05/13 14:26:18;;;;;;;0.10;0.10;;;;;;;;;;5126228;28;20267;-64
2021/05/13 14:28:43;;;;;;;0.10;0.10;;;;;;;;;;5126431;27;20198;-64
2021/05/13 14:31:09;;;;;;;0.10;0.10;;;;;;;;;;5125684;27;20209;-64
2021/05/13 14:33:35;;;;;;;0.10;0.10;;;;;;;;;;5128050;27;20467;-64
2021/05/13 14:36:01;;;;;;;0.10;0.10;;;;;;;;;;5124759;28;20229;-64
2021/05/13 14:38:27;;;;;;;0.10;0.10;;;;;;;;;;5126368;28;20202;-65
2021/05/13 14:40:53;;;;;;;0.10;0.10;;;;;;;;;;5132438;27;20253;-64